Погода Уисна 2 недели

Карас, Намибия

21 февраля-05 марта
  • 21февраля
    Сегодня
    +23°
    +39°
    Небольшая облачность
    ВремяПогодаТемператураВлажностьДавлениеВетер, м/сВероятность осадков
    02:00Ясно и безоблачно+26°C44 %676 мм1.5 м/с5 %
    05:00Ясно и безоблачно+24°C51 %675 мм1.2 м/с5 %
    08:00Ясно и безоблачно+26°C43 %676 мм1.6 м/с5 %
    11:00Ясно и безоблачно+34°C26 %677 мм2.2 м/с5 %
    14:00Небольшая облачность+38°C19 %676 мм1.4 м/с5 %
    17:00Облачно с прояснениями+38°C18 %675 мм2.3 м/с3 %
    20:00Облачно с прояснениями+32°C25 %675 мм6.9 м/с3 %
    23:00Ясно и безоблачно+28°C29 %676 мм1.8 м/с5 %
  • 22февраля
    Четверг
    +21°
    +40°
    Практически безоблачно
    ВремяПогодаТемператураВлажностьДавлениеВетер, м/сВероятность осадков
    02:00Ясно и безоблачно+26°C27 %674 мм2.4 м/с5 %
    05:00Ясно и безоблачно+25°C27 %673 мм0.9 м/с5 %
    08:00Ясно и безоблачно+26°C23 %674 мм1.4 м/с5 %
    11:00Ясно и безоблачно+34°C15 %676 мм2.5 м/с5 %
    14:00Практически безоблачно+39°C13 %674 мм3.4 м/с5 %
    17:00Облачно с прояснениями+38°C15 %673 мм7.2 м/с5 %
    20:00Ясно и безоблачно+30°C26 %674 мм6.0 м/с5 %
    23:00Практически безоблачно+24°C38 %674 мм2.1 м/с5 %
  • 23февраля
    Пятница
    +19°
    +40°
    Ясно и безоблачно
    ВремяПогодаТемператураВлажностьДавлениеВетер, м/сВероятность осадков
    02:00Небольшая облачность+24°C34 %673 мм1.0 м/с5 %
    05:00Ясно и безоблачно+23°C29 %673 мм0.5 м/с5 %
    08:00Ясно и безоблачно+24°C24 %674 мм1.6 м/с5 %
    11:00Ясно и безоблачно+32°C13 %675 мм2.5 м/с5 %
    14:00Ясно и безоблачно+39°C12 %674 мм4.4 м/с5 %
    17:00Ясно и безоблачно+38°C16 %673 мм8.2 м/с5 %
    20:00Ясно и безоблачно+28°C24 %674 мм6.1 м/с5 %
    23:00Ясно и безоблачно+23°C33 %675 мм2.9 м/с5 %
  • 24февраля
    Суббота
    +18°
    +37°
    Небольшая облачность
    ВремяПогодаТемператураВлажностьДавлениеВетер, м/сВероятность осадков
    02:00Ясно и безоблачно+22°C39 %674 мм0.6 м/с5 %
    05:00Практически безоблачно+20°C37 %674 мм2.0 м/с3 %
    08:00Ясно и безоблачно+21°C36 %675 мм0.3 м/с5 %
    11:00Небольшая облачность+29°C16 %677 мм2.9 м/с5 %
    14:00Небольшая облачность+36°C10 %676 мм4.8 м/с5 %
    17:00Небольшая облачность+37°C11 %675 мм6.9 м/с4 %
    20:00Облачно с прояснениями+27°C28 %675 мм7.5 м/с5 %
    23:00Небольшая облачность+21°C39 %676 мм3.4 м/с5 %
  • 25февраля
    Воскресенье
    +18°
    +35°
    Ясно и безоблачно
    ВремяПогодаТемператураВлажностьДавлениеВетер, м/сВероятность осадков
    02:00Ясно и безоблачно+19°C45 %675 мм1.0 м/с5 %
    05:00Ясно и безоблачно+19°C41 %675 мм1.0 м/с3 %
    08:00Ясно и безоблачно+20°C37 %676 мм1.3 м/с5 %
    11:00Ясно и безоблачно+27°C18 %678 мм3.2 м/с4 %
    14:00Ясно и безоблачно+33°C11 %677 мм5.2 м/с5 %
    17:00Ясно и безоблачно+34°C13 %676 мм6.4 м/с5 %
    20:00Ясно и безоблачно+27°C27 %676 мм6.6 м/с5 %
    23:00Ясно и безоблачно+21°C44 %676 мм2.4 м/с4 %
Мы используем cookies
Соглашаюсь